createdAt,value
2023-02-16T00:01:28.458Z,56.30
2023-02-16T00:03:59.222Z,56.50
2023-02-16T00:06:29.051Z,57.20
2023-02-16T00:08:58.419Z,56.80
2023-02-16T00:11:49.157Z,57.10
2023-02-16T00:14:17.882Z,57.20
2023-02-16T00:16:46.128Z,57.20
2023-02-16T00:19:22.338Z,57.40
2023-02-16T00:21:52.655Z,57.60
2023-02-16T00:24:21.357Z,57.80
2023-02-16T00:26:50.483Z,57.80
2023-02-16T00:29:22.642Z,57.80
2023-02-16T00:31:51.385Z,57.80
2023-02-16T00:34:33.294Z,57.80
2023-02-16T00:37:04.959Z,57.90
2023-02-16T00:39:33.845Z,58.20
2023-02-16T00:42:04.199Z,58.60
2023-02-16T00:44:35.625Z,58.90
2023-02-16T00:47:12.138Z,59.10
2023-02-16T00:49:41.748Z,59.60
2023-02-16T00:52:26.257Z,59.90
2023-02-16T00:54:54.656Z,59.50
2023-02-16T00:57:23.617Z,59.40
2023-02-16T00:59:59.458Z,59.60
2023-02-16T01:02:28.196Z,59.60
2023-02-16T01:04:59.073Z,59.70
2023-02-16T01:07:45.074Z,59.70
2023-02-16T01:10:31.370Z,59.70
2023-02-16T01:12:59.868Z,59.90
2023-02-16T01:15:28.777Z,60.00
2023-02-16T01:17:57.122Z,60.10
2023-02-16T01:20:28.586Z,60.20
2023-02-16T01:22:56.972Z,60.20
2023-02-16T01:25:25.446Z,60.30
2023-02-16T01:27:54.828Z,60.60
2023-02-16T01:30:26.018Z,60.80
2023-02-16T01:32:55.467Z,61.30
2023-02-16T01:35:29.693Z,61.50
2023-02-16T01:37:58.313Z,61.70
2023-02-16T01:40:38.306Z,61.70
2023-02-16T01:43:18.619Z,61.70
2023-02-16T01:45:51.164Z,62.40
2023-02-16T01:48:23.616Z,63.00
2023-02-16T01:51:00.838Z,63.50
2023-02-16T01:53:34.007Z,64.40
2023-02-16T01:56:05.884Z,64.70
2023-02-16T01:58:42.293Z,64.80
2023-02-16T02:01:43.794Z,65.80
2023-02-16T02:04:40.873Z,65.40
2023-02-16T02:07:17.850Z,65.40
2023-02-16T02:09:53.002Z,65.30
2023-02-16T02:12:29.795Z,65.40
2023-02-16T02:14:58.368Z,65.70
2023-02-16T02:17:27.712Z,66.10
2023-02-16T02:20:03.378Z,66.50
2023-02-16T02:23:29.898Z,67.00
2023-02-16T02:26:27.465Z,67.40
2023-02-16T02:29:12.926Z,67.90
2023-02-16T02:31:51.242Z,68.80
2023-02-16T02:34:28.215Z,69.60
2023-02-16T02:37:06.418Z,70.00
2023-02-16T02:39:41.165Z,70.20
2023-02-16T02:42:15.244Z,70.20
2023-02-16T02:44:54.187Z,70.60
2023-02-16T02:47:23.101Z,70.90
2023-02-16T02:49:52.862Z,71.10
2023-02-16T02:52:21.941Z,71.20
2023-02-16T02:55:08.972Z,71.00
2023-02-16T02:57:59.606Z,71.20
2023-02-16T03:00:44.208Z,71.70
2023-02-16T03:03:19.765Z,72.20
2023-02-16T03:05:53.211Z,72.10
2023-02-16T03:08:26.286Z,72.60
2023-02-16T03:11:15.968Z,72.60
2023-02-16T03:13:47.939Z,72.50
2023-02-16T03:16:22.872Z,72.40
2023-02-16T03:19:08.948Z,72.10
2023-02-16T03:21:54.954Z,71.80
2023-02-16T03:24:44.316Z,71.60
2023-02-16T03:27:32.652Z,71.20
2023-02-16T03:30:02.426Z,71.40
2023-02-16T03:32:32.578Z,71.40
2023-02-16T03:35:01.109Z,71.10
2023-02-16T03:37:29.585Z,71.20
2023-02-16T03:40:11.942Z,71.90
2023-02-16T03:42:40.271Z,71.40
2023-02-16T03:45:09.275Z,71.80
2023-02-16T03:47:38.854Z,72.00
2023-02-16T03:50:08.367Z,72.40
2023-02-16T03:52:36.790Z,72.80
2023-02-16T03:55:05.253Z,73.40
2023-02-16T03:57:33.834Z,73.90
2023-02-16T04:00:02.404Z,74.80
2023-02-16T04:02:31.119Z,75.10
2023-02-16T04:05:00.956Z,75.30
2023-02-16T04:07:31.740Z,75.90
2023-02-16T04:10:00.235Z,76.50
2023-02-16T04:12:37.719Z,76.70
2023-02-16T04:15:08.375Z,76.70
2023-02-16T04:17:36.997Z,76.90
2023-02-16T04:20:08.243Z,77.00
2023-02-16T04:22:36.681Z,76.90
2023-02-16T04:25:05.541Z,76.90
2023-02-16T04:27:33.991Z,76.80
2023-02-16T04:30:02.392Z,76.50
2023-02-16T04:32:30.858Z,76.70
2023-02-16T04:34:59.203Z,77.00
2023-02-16T04:37:28.956Z,77.30
2023-02-16T04:39:57.445Z,78.30
2023-02-16T04:42:26.012Z,77.90
2023-02-16T04:44:54.453Z,77.90
2023-02-16T04:47:25.917Z,77.40
2023-02-16T04:49:54.785Z,77.00
2023-02-16T04:52:23.196Z,76.60
2023-02-16T04:54:52.886Z,76.20
2023-02-16T04:57:22.698Z,75.90
2023-02-16T04:59:51.058Z,75.50
2023-02-16T05:02:19.420Z,75.20
2023-02-16T05:04:47.802Z,74.80
2023-02-16T05:07:16.450Z,74.40
2023-02-16T05:09:44.752Z,75.10
2023-02-16T05:12:32.361Z,74.20
2023-02-16T05:15:00.870Z,74.20
2023-02-16T05:17:30.054Z,74.40
2023-02-16T05:20:00.519Z,74.30
2023-02-16T05:22:32.491Z,74.20
2023-02-16T05:25:01.011Z,73.70
2023-02-16T05:27:31.766Z,73.40
2023-02-16T05:30:00.766Z,73.40
2023-02-16T05:32:29.415Z,73.20
2023-02-16T05:34:57.812Z,73.10
2023-02-16T05:37:26.199Z,72.80
2023-02-16T05:39:54.643Z,72.70
2023-02-16T05:42:22.946Z,72.50
2023-02-16T05:44:52.618Z,72.50
2023-02-16T05:47:20.976Z,72.60
2023-02-16T05:49:49.322Z,72.60
2023-02-16T05:52:17.614Z,73.00
2023-02-16T05:54:45.932Z,73.00
2023-02-16T05:57:14.326Z,73.10
2023-02-16T05:59:42.695Z,72.90
2023-02-16T06:02:12.375Z,73.00
2023-02-16T06:04:40.775Z,73.20
2023-02-16T06:07:09.227Z,73.30
2023-02-16T06:09:37.515Z,73.60
2023-02-16T06:12:06.366Z,74.10
2023-02-16T06:14:34.671Z,74.60
2023-02-16T06:17:03.800Z,75.30
2023-02-16T06:19:33.578Z,76.00
2023-02-16T06:22:02.048Z,77.00
2023-02-16T06:24:30.514Z,78.10
2023-02-16T06:26:58.871Z,79.00
2023-02-16T06:29:27.372Z,79.50
2023-02-16T06:31:55.881Z,79.80
2023-02-16T06:34:24.651Z,80.10
2023-02-16T06:36:54.416Z,80.40
2023-02-16T06:39:22.905Z,80.70
2023-02-16T06:41:51.324Z,80.90
2023-02-16T06:44:19.745Z,81.10
2023-02-16T06:46:49.098Z,81.70
2023-02-16T06:49:19.758Z,82.30
2023-02-16T06:51:49.270Z,83.10
2023-02-16T06:54:19.736Z,84.30
2023-02-16T06:56:48.195Z,85.30
2023-02-16T06:59:16.644Z,87.20
2023-02-16T07:01:45.570Z,90.10
2023-02-16T07:04:15.280Z,91.10
2023-02-16T07:06:43.729Z,91.50
2023-02-16T07:09:12.974Z,91.60
2023-02-16T07:11:42.806Z,91.60
2023-02-16T07:14:11.429Z,92.20
2023-02-16T07:16:39.957Z,92.80
2023-02-16T07:19:08.527Z,93.10
2023-02-16T07:21:36.979Z,93.40
2023-02-16T07:24:05.601Z,92.90
2023-02-16T07:26:34.193Z,92.60
2023-02-16T07:29:03.847Z,92.20
2023-02-16T07:31:32.365Z,91.60
2023-02-16T07:34:00.786Z,91.00
2023-02-16T07:36:29.359Z,89.80
2023-02-16T07:38:57.735Z,84.60
2023-02-16T07:41:26.225Z,79.50
2023-02-16T07:43:55.292Z,76.70
2023-02-16T07:46:25.049Z,75.10
2023-02-16T07:48:53.538Z,71.90
2023-02-16T07:51:23.513Z,70.10
2023-02-16T07:53:52.316Z,68.50
2023-02-16T07:56:22.580Z,66.20
2023-02-16T07:58:53.047Z,64.20
2023-02-16T08:01:22.112Z,62.40
2023-02-16T08:03:52.343Z,61.10
2023-02-16T08:06:21.481Z,60.50
2023-02-16T08:08:50.113Z,59.50
2023-02-16T08:11:20.478Z,58.10
2023-02-16T08:13:49.512Z,57.30
2023-02-16T08:16:19.967Z,56.30
2023-02-16T08:18:48.305Z,55.20
2023-02-16T08:21:20.608Z,54.00
2023-02-16T08:23:54.095Z,53.10
2023-02-16T08:26:24.389Z,51.90
2023-02-16T08:28:53.067Z,50.60
2023-02-16T08:31:24.991Z,50.30
2023-02-16T08:33:55.015Z,50.00
2023-02-16T08:36:26.686Z,49.40
2023-02-16T08:38:56.722Z,48.30
2023-02-16T08:41:30.047Z,47.50
2023-02-16T08:43:58.385Z,46.20
2023-02-16T08:46:26.977Z,45.90
2023-02-16T08:48:56.888Z,45.30
2023-02-16T08:51:27.982Z,44.10
2023-02-16T08:53:58.100Z,43.60
2023-02-16T08:56:26.557Z,43.10
2023-02-16T08:58:55.066Z,42.50
2023-02-16T09:01:23.883Z,41.70
2023-02-16T09:03:53.453Z,41.50
2023-02-16T09:06:23.719Z,41.20
2023-02-16T09:08:56.092Z,40.30
2023-02-16T09:11:25.704Z,39.40
2023-02-16T09:13:54.073Z,39.20
2023-02-16T09:16:24.646Z,38.70
2023-02-16T09:18:53.729Z,38.90
2023-02-16T09:21:25.562Z,38.30
2023-02-16T09:23:58.336Z,36.90
2023-02-16T09:26:27.831Z,36.00
2023-02-16T09:28:58.794Z,35.60
2023-02-16T09:31:31.311Z,34.50
2023-02-16T09:34:04.036Z,34.30
2023-02-16T09:36:33.101Z,33.20
2023-02-16T09:39:02.766Z,34.40
2023-02-16T09:41:47.871Z,34.70
2023-02-16T09:44:25.812Z,35.20
2023-02-16T09:46:57.671Z,35.70
2023-02-16T09:49:32.564Z,35.80
2023-02-16T09:52:07.391Z,36.20
2023-02-16T09:54:46.458Z,35.70
2023-02-16T09:57:22.719Z,35.50
2023-02-16T09:59:57.808Z,35.00
2023-02-16T10:02:44.742Z,34.00
2023-02-16T10:05:21.377Z,34.50
2023-02-16T10:08:00.270Z,33.90
2023-02-16T10:10:38.698Z,34.70
2023-02-16T10:13:16.461Z,34.80
2023-02-16T10:15:46.665Z,34.60
2023-02-16T10:18:24.225Z,34.40
2023-02-16T10:20:56.650Z,34.30
2023-02-16T10:23:39.173Z,34.40
2023-02-16T10:26:17.933Z,33.40
2023-02-16T10:28:48.503Z,33.10
2023-02-16T10:31:25.650Z,33.10
2023-02-16T10:34:23.069Z,32.60
2023-02-16T10:37:36.664Z,32.40
2023-02-16T10:40:23.642Z,32.20
2023-02-16T10:42:59.947Z,32.30
2023-02-16T10:45:33.245Z,32.10
2023-02-16T10:48:02.018Z,31.80
2023-02-16T10:50:34.916Z,31.50
2023-02-16T10:53:09.405Z,30.90
2023-02-16T10:55:39.435Z,31.50
2023-02-16T10:58:22.358Z,31.00
2023-02-16T11:00:57.399Z,30.30
2023-02-16T11:03:33.488Z,30.00
2023-02-16T11:06:15.284Z,30.00
2023-02-16T11:08:50.119Z,30.10
2023-02-16T11:11:20.340Z,30.20
2023-02-16T11:13:51.435Z,30.10
2023-02-16T11:16:25.054Z,29.90
2023-02-16T11:19:00.632Z,30.00
2023-02-16T11:21:46.219Z,30.00
2023-02-16T11:24:25.715Z,30.00
2023-02-16T11:27:07.491Z,30.00
2023-02-16T11:29:37.232Z,29.10
2023-02-16T11:32:10.662Z,29.40
2023-02-16T11:34:43.615Z,29.10
2023-02-16T11:37:19.059Z,29.40
2023-02-16T11:39:53.983Z,29.20
2023-02-16T11:42:30.052Z,29.70
2023-02-16T11:45:01.529Z,30.20
2023-02-16T11:47:33.076Z,30.30
2023-02-16T11:50:20.320Z,30.20
2023-02-16T11:52:50.164Z,30.10
2023-02-16T11:55:26.992Z,30.30
2023-02-16T11:57:57.178Z,30.30
2023-02-16T12:00:28.069Z,30.30
2023-02-16T12:03:17.787Z,30.10
2023-02-16T12:06:13.410Z,30.20
2023-02-16T12:09:04.297Z,30.40
2023-02-16T12:11:44.364Z,30.20
2023-02-16T12:14:36.215Z,30.20
2023-02-16T12:17:17.838Z,30.50
2023-02-16T12:19:49.841Z,30.30
2023-02-16T12:22:30.453Z,30.50
2023-02-16T12:25:11.328Z,30.40
2023-02-16T12:27:46.920Z,30.30
2023-02-16T12:30:29.694Z,30.40
2023-02-16T12:33:13.184Z,30.50
2023-02-16T12:36:00.920Z,30.40
2023-02-16T12:38:40.551Z,30.40
2023-02-16T12:41:19.115Z,30.80
2023-02-16T12:43:52.461Z,31.00
2023-02-16T12:46:26.020Z,30.90
2023-02-16T12:48:59.714Z,30.00
2023-02-16T12:51:35.523Z,29.50
2023-02-16T12:54:11.047Z,29.60
2023-02-16T12:56:44.547Z,30.00
2023-02-16T12:59:22.537Z,30.50
2023-02-16T13:01:53.470Z,31.10
2023-02-16T13:04:36.313Z,30.90
2023-02-16T13:07:18.087Z,30.80
2023-02-16T13:09:55.794Z,30.40
2023-02-16T13:12:31.599Z,31.00
2023-02-16T13:15:11.674Z,31.00
2023-02-16T13:17:43.095Z,30.90
2023-02-16T13:20:19.834Z,31.00
2023-02-16T13:23:36.738Z,30.90
2023-02-16T13:26:25.224Z,30.70
2023-02-16T13:29:12.567Z,30.80
2023-02-16T13:31:54.675Z,30.60
2023-02-16T13:34:48.330Z,30.70
2023-02-16T13:37:36.947Z,30.50
2023-02-16T13:40:23.638Z,30.20
2023-02-16T13:43:14.056Z,30.20
2023-02-16T13:45:45.438Z,30.60
2023-02-16T13:48:23.502Z,30.70
2023-02-16T13:50:58.626Z,31.30
2023-02-16T13:53:34.783Z,30.80
2023-02-16T13:56:32.352Z,31.10
2023-02-16T13:59:22.464Z,31.50
2023-02-16T14:01:51.702Z,31.80
2023-02-16T14:05:07.755Z,32.20
2023-02-16T14:07:39.860Z,32.70
2023-02-16T14:10:14.825Z,33.00
2023-02-16T14:12:44.475Z,33.40
2023-02-16T14:15:21.545Z,33.60
2023-02-16T14:17:49.948Z,33.70
2023-02-16T14:20:31.273Z,33.90
2023-02-16T14:23:01.109Z,34.00
2023-02-16T14:25:38.059Z,34.20
2023-02-16T14:28:28.046Z,34.50
2023-02-16T14:30:58.694Z,34.70
2023-02-16T14:33:41.337Z,34.70
2023-02-16T14:36:17.096Z,34.80
2023-02-16T14:38:48.641Z,35.20
2023-02-16T14:41:29.526Z,35.70
2023-02-16T14:44:22.358Z,35.90
2023-02-16T14:47:01.199Z,36.30
2023-02-16T14:50:09.457Z,36.40
2023-02-16T14:53:05.827Z,36.40
2023-02-16T14:56:08.707Z,36.20
2023-02-16T14:58:47.715Z,36.40
2023-02-16T15:01:18.835Z,36.40
2023-02-16T15:03:50.456Z,36.40
2023-02-16T15:06:26.615Z,36.60
2023-02-16T15:08:58.716Z,36.70
2023-02-16T15:11:32.305Z,36.90
2023-02-16T15:14:08.508Z,37.70
2023-02-16T15:16:41.679Z,38.90
2023-02-16T15:19:17.403Z,39.50
2023-02-16T15:21:45.813Z,39.90
2023-02-16T15:24:24.433Z,40.20
2023-02-16T15:27:01.592Z,40.40
2023-02-16T15:29:33.527Z,40.80
2023-02-16T15:32:02.232Z,41.20
2023-02-16T15:34:35.059Z,41.50
2023-02-16T15:37:23.484Z,42.00
2023-02-16T15:40:12.143Z,42.40
2023-02-16T15:42:44.567Z,43.00
2023-02-16T15:45:32.972Z,43.50
2023-02-16T15:48:27.903Z,43.70
2023-02-16T15:51:01.186Z,44.10
2023-02-16T15:53:44.501Z,44.30
2023-02-16T15:56:28.039Z,44.50
2023-02-16T15:58:57.667Z,44.80
2023-02-16T16:01:33.384Z,45.30
2023-02-16T16:04:04.340Z,45.60
2023-02-16T16:06:39.113Z,46.00
2023-02-16T16:09:08.743Z,46.30
2023-02-16T16:11:38.360Z,46.90
2023-02-16T16:14:07.998Z,47.50
2023-02-16T16:16:38.628Z,47.40
2023-02-16T16:19:09.261Z,47.70
2023-02-16T16:21:52.013Z,47.90
2023-02-16T16:24:39.057Z,48.20
2023-02-16T16:27:09.616Z,48.40
2023-02-16T16:29:41.445Z,48.60
2023-02-16T16:32:21.612Z,49.60
2023-02-16T16:34:50.747Z,49.30
2023-02-16T16:37:27.534Z,49.50
2023-02-16T16:40:04.352Z,49.90
2023-02-16T16:42:34.872Z,50.10
2023-02-16T16:45:07.583Z,50.30
2023-02-16T16:47:40.250Z,50.40
2023-02-16T16:50:31.470Z,50.70
2023-02-16T16:53:01.797Z,50.90
2023-02-16T16:55:33.512Z,51.00
2023-02-16T16:58:04.951Z,51.30
2023-02-16T17:00:38.585Z,51.40
2023-02-16T17:03:08.813Z,51.50
2023-02-16T17:05:39.997Z,51.50
2023-02-16T17:08:09.873Z,51.70
2023-02-16T17:10:40.451Z,51.80
2023-02-16T17:13:13.067Z,51.80
2023-02-16T17:15:47.382Z,52.00
2023-02-16T17:18:17.590Z,52.10
2023-02-16T17:20:47.079Z,52.20
2023-02-16T17:23:18.512Z,52.30
2023-02-16T17:25:47.044Z,52.40
2023-02-16T17:28:17.352Z,52.60
2023-02-16T17:30:46.026Z,52.90
2023-02-16T17:33:14.544Z,53.10
2023-02-16T17:35:44.439Z,53.20
2023-02-16T17:38:15.054Z,53.40
2023-02-16T17:40:45.214Z,53.60
2023-02-16T17:43:15.456Z,53.70
2023-02-16T17:45:44.831Z,53.90
2023-02-16T17:48:17.362Z,54.20
2023-02-16T17:50:45.902Z,54.30
2023-02-16T17:53:15.852Z,54.30
2023-02-16T17:55:46.826Z,54.50
2023-02-16T17:58:15.871Z,54.80
2023-02-16T18:00:46.002Z,55.00
2023-02-16T18:03:14.445Z,55.10
2023-02-16T18:05:42.859Z,55.20
2023-02-16T18:08:12.472Z,55.40
2023-02-16T18:10:43.657Z,55.40
2023-02-16T18:13:14.834Z,55.50
2023-02-16T18:15:46.274Z,56.20
2023-02-16T18:18:16.184Z,55.70
2023-02-16T18:20:45.369Z,55.80
2023-02-16T18:23:14.685Z,56.00
2023-02-16T18:25:44.244Z,56.10
2023-02-16T18:28:18.350Z,56.20
2023-02-16T18:30:49.511Z,56.20
2023-02-16T18:33:18.749Z,56.20
2023-02-16T18:35:47.133Z,56.40
2023-02-16T18:38:15.755Z,56.40
2023-02-16T18:40:44.994Z,56.50
2023-02-16T18:43:15.015Z,56.60
2023-02-16T18:45:43.663Z,56.70
2023-02-16T18:48:12.293Z,56.80
2023-02-16T18:50:40.912Z,56.80
2023-02-16T18:53:09.283Z,56.80
2023-02-16T18:55:37.713Z,56.90
2023-02-16T18:58:08.665Z,57.00
2023-02-16T19:00:39.209Z,57.30
2023-02-16T19:03:07.689Z,57.30
2023-02-16T19:05:36.201Z,57.50
2023-02-16T19:08:04.791Z,57.60
2023-02-16T19:10:33.569Z,57.70
2023-02-16T19:13:02.418Z,57.90
2023-02-16T19:15:30.944Z,57.90
2023-02-16T19:18:00.963Z,58.00
2023-02-16T19:20:29.834Z,58.30
2023-02-16T19:22:58.286Z,58.50
2023-02-16T19:25:27.190Z,58.70
2023-02-16T19:27:55.683Z,58.90
2023-02-16T19:30:24.448Z,59.10
2023-02-16T19:32:52.987Z,59.30
2023-02-16T19:35:22.769Z,59.50
2023-02-16T19:37:51.898Z,59.60
2023-02-16T19:40:20.482Z,59.90
2023-02-16T19:42:48.962Z,60.10
2023-02-16T19:45:17.362Z,60.40
2023-02-16T19:47:45.801Z,60.70
2023-02-16T19:50:14.221Z,60.80
2023-02-16T19:52:43.902Z,61.00
2023-02-16T19:55:12.284Z,61.00
2023-02-16T19:57:40.730Z,61.30
2023-02-16T20:00:13.523Z,61.70
2023-02-16T20:02:42.090Z,62.10
2023-02-16T20:05:11.288Z,62.60
2023-02-16T20:07:39.703Z,63.00
2023-02-16T20:10:10.328Z,63.30
2023-02-16T20:12:38.813Z,63.80
2023-02-16T20:15:07.772Z,64.10
2023-02-16T20:17:36.243Z,64.70
2023-02-16T20:20:05.404Z,65.20
2023-02-16T20:22:33.893Z,65.60
2023-02-16T20:25:02.437Z,66.10
2023-02-16T20:27:32.223Z,66.50
2023-02-16T20:30:02.892Z,67.00
2023-02-16T20:32:31.637Z,67.40
2023-02-16T20:35:02.825Z,67.60
2023-02-16T20:37:31.527Z,67.90
2023-02-16T20:39:59.875Z,68.20
2023-02-16T20:42:28.665Z,68.70
2023-02-16T20:44:58.353Z,69.30
2023-02-16T20:47:26.805Z,69.70
2023-02-16T20:49:55.253Z,69.90
2023-02-16T20:52:23.733Z,70.30
2023-02-16T20:54:52.184Z,70.90
2023-02-16T20:57:26.734Z,71.20
2023-02-16T20:59:57.360Z,72.00
2023-02-16T21:02:25.961Z,73.10
2023-02-16T21:04:54.453Z,74.20
2023-02-16T21:07:22.869Z,74.70
2023-02-16T21:09:51.238Z,75.40
2023-02-16T21:12:19.618Z,76.10
2023-02-16T21:14:48.059Z,76.50
2023-02-16T21:17:18.090Z,77.20
2023-02-16T21:19:46.722Z,77.80
2023-02-16T21:22:15.184Z,78.10
2023-02-16T21:24:43.894Z,78.50
2023-02-16T21:27:12.532Z,78.70
2023-02-16T21:29:40.942Z,78.90
2023-02-16T21:32:09.651Z,79.20
2023-02-16T21:34:39.565Z,79.40
2023-02-16T21:37:08.051Z,79.70
2023-02-16T21:39:53.961Z,80.20
2023-02-16T21:42:22.400Z,80.60
2023-02-16T21:45:10.997Z,81.00
2023-02-16T21:47:57.610Z,81.40
2023-02-16T21:50:27.570Z,82.10
2023-02-16T21:52:56.726Z,82.70
2023-02-16T21:55:43.167Z,83.00
2023-02-16T21:58:11.663Z,83.40
2023-02-16T22:00:40.121Z,83.90
2023-02-16T22:03:09.316Z,84.90
2023-02-16T22:05:39.273Z,84.60
2023-02-16T22:08:07.881Z,85.10
2023-02-16T22:10:36.729Z,85.20
2023-02-16T22:13:05.474Z,85.30
2023-02-16T22:15:37.066Z,85.40
2023-02-16T22:18:06.176Z,85.50
2023-02-16T22:20:34.924Z,85.40
2023-02-16T22:23:05.148Z,85.40
2023-02-16T22:25:33.601Z,85.70
2023-02-16T22:28:01.991Z,86.10
2023-02-16T22:30:30.469Z,86.40
2023-02-16T22:32:58.962Z,86.90
2023-02-16T22:35:27.465Z,87.10
2023-02-16T22:37:55.919Z,87.10
2023-02-16T22:40:25.703Z,87.40
2023-02-16T22:42:54.024Z,87.60
2023-02-16T22:45:22.434Z,87.80
2023-02-16T22:47:50.816Z,87.90
2023-02-16T22:50:19.372Z,88.20
2023-02-16T22:52:47.806Z,88.50
2023-02-16T22:55:16.273Z,88.90
2023-02-16T22:57:46.250Z,88.90
2023-02-16T23:00:17.021Z,89.10
2023-02-16T23:02:45.505Z,89.30
2023-02-16T23:05:13.815Z,89.60
2023-02-16T23:07:42.122Z,89.80
2023-02-16T23:10:10.841Z,89.80
2023-02-16T23:12:39.261Z,90.00
2023-02-16T23:15:09.600Z,90.20
2023-02-16T23:17:38.280Z,90.20
2023-02-16T23:20:07.634Z,90.20
2023-02-16T23:22:36.078Z,90.20
2023-02-16T23:25:22.382Z,90.20
2023-02-16T23:27:53.439Z,90.10
2023-02-16T23:30:23.170Z,90.10
2023-02-16T23:32:51.735Z,90.10
2023-02-16T23:35:20.295Z,90.10
2023-02-16T23:37:48.636Z,90.10
2023-02-16T23:40:16.990Z,90.00
2023-02-16T23:42:45.386Z,90.10
2023-02-16T23:45:13.875Z,90.10
2023-02-16T23:47:43.590Z,90.10
2023-02-16T23:50:12.359Z,90.20
2023-02-16T23:52:40.947Z,90.30
2023-02-16T23:55:09.986Z,90.30
2023-02-16T23:57:38.359Z,90.40
